createdAt,value
2022-12-19T00:00:38.821Z,73.75
2022-12-19T00:03:26.332Z,75.65
2022-12-19T00:05:54.577Z,73.10
2022-12-19T00:08:23.061Z,70.65
2022-12-19T00:10:57.994Z,73.18
2022-12-19T00:13:27.238Z,76.53
2022-12-19T00:15:57.345Z,66.88
2022-12-19T00:18:26.036Z,68.93
2022-12-19T00:21:01.331Z,71.60
2022-12-19T00:23:31.961Z,71.63
2022-12-19T00:26:10.364Z,70.40
2022-12-19T00:28:39.441Z,64.10
2022-12-19T00:31:08.011Z,69.93
2022-12-19T00:33:37.483Z,66.32
2022-12-19T00:36:13.618Z,63.40
2022-12-19T00:38:43.433Z,69.30
2022-12-19T00:41:14.987Z,66.55
2022-12-19T00:43:44.987Z,71.45
2022-12-19T00:46:14.956Z,64.45
2022-12-19T00:48:46.608Z,63.55
2022-12-19T00:51:18.113Z,67.22
2022-12-19T00:53:48.262Z,71.75
2022-12-19T00:56:19.320Z,61.70
2022-12-19T00:58:47.969Z,64.10
2022-12-19T01:01:18.543Z,67.00
2022-12-19T01:06:35.318Z,62.47
2022-12-19T01:09:12.035Z,67.25
2022-12-19T01:11:58.862Z,64.05
2022-12-19T01:14:27.388Z,62.92
2022-12-19T01:16:55.693Z,66.22
2022-12-19T01:19:24.347Z,63.17
2022-12-19T01:21:52.534Z,63.70
2022-12-19T01:24:21.099Z,66.30
2022-12-19T01:26:50.961Z,68.97
2022-12-19T01:29:19.568Z,72.03
2022-12-19T01:31:47.733Z,65.72
2022-12-19T01:34:16.358Z,66.50
2022-12-19T01:36:44.632Z,69.10
2022-12-19T01:39:13.248Z,68.80
2022-12-19T01:41:41.406Z,60.95
2022-12-19T01:44:11.250Z,62.45
2022-12-19T01:46:42.397Z,64.38
2022-12-19T01:49:25.435Z,68.45
2022-12-19T01:51:55.396Z,66.22
2022-12-19T01:54:27.717Z,67.55
2022-12-19T01:56:57.460Z,63.33
2022-12-19T01:59:31.338Z,70.67
2022-12-19T02:02:02.562Z,63.88
2022-12-19T02:04:32.670Z,63.47
2022-12-19T02:07:11.647Z,60.78
2022-12-19T02:09:46.073Z,73.63
2022-12-19T02:12:14.950Z,74.20
2022-12-19T02:14:45.071Z,70.07
2022-12-19T02:17:18.521Z,60.78
2022-12-19T02:20:29.454Z,62.97
2022-12-19T02:23:11.139Z,69.10
2022-12-19T02:25:51.891Z,67.45
2022-12-19T02:28:45.555Z,66.45
2022-12-19T02:31:19.446Z,66.38
2022-12-19T02:33:56.372Z,64.65
2022-12-19T02:36:30.558Z,61.45
2022-12-19T02:39:07.066Z,70.35
2022-12-19T02:41:44.360Z,67.38
2022-12-19T02:44:15.134Z,61.83
2022-12-19T02:46:46.297Z,65.68
2022-12-19T02:51:59.755Z,65.57
2022-12-19T02:54:27.971Z,63.90
2022-12-19T02:56:59.889Z,60.70
2022-12-19T02:59:41.170Z,67.95
2022-12-19T03:02:17.546Z,68.22
2022-12-19T03:04:49.622Z,62.88
2022-12-19T03:07:25.850Z,68.05
2022-12-19T03:09:58.476Z,64.97
2022-12-19T03:12:32.398Z,67.55
2022-12-19T03:15:01.559Z,68.05
2022-12-19T03:17:36.570Z,72.22
2022-12-19T03:20:09.122Z,72.43
2022-12-19T03:22:37.716Z,67.65
2022-12-19T03:25:06.548Z,63.40
2022-12-19T03:27:37.093Z,71.15
2022-12-19T03:30:07.917Z,67.78
2022-12-19T03:32:38.959Z,71.45
2022-12-19T03:35:10.196Z,72.63
2022-12-19T03:37:42.455Z,66.10
2022-12-19T03:40:12.803Z,67.78
2022-12-19T03:42:58.946Z,72.07
2022-12-19T03:45:32.489Z,67.30
2022-12-19T03:48:07.746Z,69.47
2022-12-19T03:50:43.894Z,65.72
2022-12-19T03:53:19.096Z,68.30
2022-12-19T03:55:50.560Z,72.20
2022-12-19T03:58:22.059Z,67.20
2022-12-19T04:00:50.983Z,76.15
2022-12-19T04:03:20.905Z,68.88
2022-12-19T04:05:49.962Z,71.00
2022-12-19T04:08:18.900Z,70.80
2022-12-19T04:10:50.669Z,72.57
2022-12-19T04:13:21.846Z,70.28
2022-12-19T04:15:53.740Z,65.90
2022-12-19T04:18:24.219Z,64.25
2022-12-19T04:20:56.773Z,71.45
2022-12-19T04:23:28.604Z,61.03
2022-12-19T04:26:00.500Z,70.35
2022-12-19T04:28:34.830Z,71.03
2022-12-19T04:31:04.108Z,74.35
2022-12-19T04:33:34.015Z,82.22
2022-12-19T04:36:02.303Z,63.90
2022-12-19T04:38:30.817Z,66.35
2022-12-19T04:40:59.118Z,67.28
2022-12-19T04:43:27.668Z,65.15
2022-12-19T04:45:57.696Z,73.65
2022-12-19T04:48:26.685Z,66.07
2022-12-19T04:50:56.752Z,67.80
2022-12-19T04:53:25.238Z,67.53
2022-12-19T04:56:01.626Z,69.63
2022-12-19T04:58:30.177Z,65.88
2022-12-19T05:01:02.256Z,67.97
2022-12-19T05:03:30.697Z,66.32
2022-12-19T05:06:07.318Z,68.28
2022-12-19T05:08:36.653Z,71.40
2022-12-19T05:11:06.528Z,67.80
2022-12-19T05:13:35.219Z,72.68
2022-12-19T05:16:05.836Z,77.45
2022-12-19T05:18:34.496Z,70.88
2022-12-19T05:21:02.925Z,76.97
2022-12-19T05:23:32.770Z,82.55
2022-12-19T05:26:01.944Z,75.80
2022-12-19T05:28:30.524Z,71.50
2022-12-19T05:31:04.319Z,76.03
2022-12-19T05:33:32.890Z,64.95
2022-12-19T05:36:01.227Z,69.88
2022-12-19T05:38:29.820Z,82.78
2022-12-19T05:40:59.810Z,75.90
2022-12-19T05:43:28.316Z,77.15
2022-12-19T05:45:56.568Z,75.88
2022-12-19T05:48:25.019Z,74.00
2022-12-19T05:50:53.369Z,68.28
2022-12-19T05:53:25.850Z,71.35
2022-12-19T05:55:54.797Z,70.97
2022-12-19T05:58:24.636Z,73.93
2022-12-19T06:00:55.773Z,75.18
2022-12-19T06:03:26.509Z,63.78
2022-12-19T06:05:54.834Z,69.93
2022-12-19T06:08:23.301Z,76.57
2022-12-19T06:10:52.815Z,64.13
2022-12-19T06:13:25.045Z,68.22
2022-12-19T06:16:00.204Z,70.60
2022-12-19T06:18:30.494Z,70.63
2022-12-19T06:21:00.159Z,73.80
2022-12-19T06:23:28.801Z,73.43
2022-12-19T06:25:57.989Z,66.13
2022-12-19T06:28:26.765Z,65.10
2022-12-19T06:30:57.149Z,65.75
2022-12-19T06:33:28.030Z,64.85
2022-12-19T06:35:59.893Z,70.85
2022-12-19T06:38:28.714Z,65.00
2022-12-19T06:41:14.524Z,66.32
2022-12-19T06:43:43.271Z,68.82
2022-12-19T06:46:11.783Z,67.90
2022-12-19T06:48:41.708Z,62.47
2022-12-19T06:51:09.954Z,63.88
2022-12-19T06:53:38.458Z,64.07
2022-12-19T06:56:07.179Z,67.85
2022-12-19T06:58:36.012Z,70.68
2022-12-19T07:01:04.435Z,73.68
2022-12-19T07:03:37.506Z,62.80
2022-12-19T07:06:08.579Z,63.15
2022-12-19T07:08:37.184Z,73.32
2022-12-19T07:11:05.800Z,65.10
2022-12-19T07:13:34.414Z,61.22
2022-12-19T07:16:04.434Z,64.88
2022-12-19T07:18:36.274Z,64.97
2022-12-19T07:21:04.734Z,64.45
2022-12-19T07:23:35.196Z,71.22
2022-12-19T07:26:03.480Z,68.33
2022-12-19T07:28:32.323Z,74.40
2022-12-19T07:31:00.509Z,66.53
2022-12-19T07:33:29.302Z,65.85
2022-12-19T07:35:57.567Z,72.65
2022-12-19T07:38:26.262Z,68.38
2022-12-19T07:40:55.798Z,68.07
2022-12-19T07:43:24.444Z,67.30
2022-12-19T07:45:55.923Z,73.10
2022-12-19T07:48:24.869Z,73.10
2022-12-19T07:50:53.104Z,63.67
2022-12-19T07:53:21.738Z,65.63
2022-12-19T07:55:51.719Z,65.85
2022-12-19T07:58:21.742Z,67.78
2022-12-19T08:00:55.488Z,68.93
2022-12-19T08:03:24.588Z,63.72
2022-12-19T08:05:52.890Z,60.10
2022-12-19T08:08:21.562Z,62.65
2022-12-19T08:10:49.787Z,67.05
2022-12-19T08:13:18.306Z,65.25
2022-12-19T08:15:47.840Z,63.58
2022-12-19T08:18:16.397Z,57.30
2022-12-19T08:20:46.802Z,58.90
2022-12-19T08:23:15.310Z,62.03
2022-12-19T08:25:43.491Z,58.10
2022-12-19T08:28:12.030Z,55.10
2022-12-19T08:30:40.454Z,52.22
2022-12-19T08:33:10.410Z,50.13
2022-12-19T08:35:38.610Z,51.25
2022-12-19T08:38:07.707Z,50.42
2022-12-19T08:40:36.008Z,87.55
2022-12-19T08:43:04.640Z,198.82
2022-12-19T08:45:32.859Z,108.85
2022-12-19T08:48:01.253Z,47.85
2022-12-19T08:50:30.960Z,51.20
2022-12-19T08:52:59.485Z,53.67
2022-12-19T08:55:27.835Z,55.85
2022-12-19T08:57:58.098Z,51.47
2022-12-19T09:00:26.625Z,112.15
2022-12-19T09:02:56.306Z,50.90
2022-12-19T09:06:02.149Z,54.05
2022-12-19T09:08:14.892Z,49.25
2022-12-19T09:10:43.360Z,47.85
2022-12-19T09:13:12.291Z,45.22
2022-12-19T09:15:41.163Z,43.90
2022-12-19T09:18:10.399Z,47.55
2022-12-19T09:20:38.831Z,49.30
2022-12-19T09:23:06.991Z,52.38
2022-12-19T09:25:36.963Z,49.70
2022-12-19T09:30:57.975Z,52.28
2022-12-19T09:33:26.183Z,49.85
2022-12-19T09:35:56.846Z,53.45
2022-12-19T09:38:26.621Z,51.60
2022-12-19T09:41:08.356Z,54.17
2022-12-19T09:46:17.802Z,50.50
2022-12-19T09:48:50.920Z,49.97
2022-12-19T09:51:31.644Z,50.15
2022-12-19T09:54:05.983Z,52.28
2022-12-19T09:56:45.743Z,54.00
2022-12-19T09:59:22.593Z,53.33
2022-12-19T10:01:58.019Z,48.92
2022-12-19T10:04:28.287Z,81.15
2022-12-19T10:07:16.796Z,92.70
2022-12-19T10:12:12.742Z,84.15
2022-12-19T10:12:58.524Z,88.78
2022-12-19T10:15:35.688Z,80.30
2022-12-19T10:18:15.620Z,63.25
2022-12-19T10:20:46.822Z,61.20
2022-12-19T10:23:31.770Z,52.97
2022-12-19T10:26:01.821Z,63.03
2022-12-19T10:28:45.155Z,58.63
2022-12-19T10:31:22.013Z,50.03
2022-12-19T10:33:55.790Z,47.92
2022-12-19T10:36:41.925Z,48.22
2022-12-19T10:39:18.311Z,51.40
2022-12-19T10:41:46.780Z,47.25
2022-12-19T10:44:16.615Z,62.83
2022-12-19T10:46:46.682Z,49.30
2022-12-19T10:49:17.790Z,43.55
2022-12-19T10:51:55.699Z,50.75
2022-12-19T10:54:33.088Z,47.83
2022-12-19T10:57:19.367Z,46.83
2022-12-19T11:00:00.782Z,47.40
2022-12-19T11:02:44.900Z,46.40
2022-12-19T11:05:25.638Z,42.10
2022-12-19T11:08:05.232Z,40.10
2022-12-19T11:12:01.132Z,40.13
2022-12-19T11:20:18.989Z,42.15
2022-12-19T11:25:53.386Z,39.20
2022-12-19T11:29:16.739Z,40.15
2022-12-19T11:29:31.409Z,41.60
2022-12-19T11:29:33.804Z,41.30
2022-12-19T11:29:36.670Z,40.70
2022-12-19T11:31:53.011Z,40.95
2022-12-19T11:33:35.804Z,42.90
2022-12-19T11:36:05.661Z,42.45
2022-12-19T11:38:38.580Z,40.75
2022-12-19T11:41:14.481Z,43.92
2022-12-19T11:43:53.537Z,40.28
2022-12-19T11:46:35.346Z,45.63
2022-12-19T11:49:07.459Z,46.00
2022-12-19T11:51:41.221Z,42.55
2022-12-19T11:54:15.103Z,48.03
2022-12-19T11:56:43.318Z,43.90
2022-12-19T11:59:20.114Z,44.63
2022-12-19T12:02:01.248Z,44.67
2022-12-19T12:07:54.267Z,49.15
2022-12-19T12:13:29.300Z,46.95
2022-12-19T12:24:21.345Z,54.55
2022-12-19T12:28:59.742Z,53.75
2022-12-19T12:31:01.217Z,52.90
2022-12-19T12:31:40.618Z,55.72
2022-12-19T12:31:48.723Z,54.85
2022-12-19T12:31:50.784Z,52.55
2022-12-19T12:31:57.247Z,59.83
2022-12-19T12:35:21.480Z,60.92
2022-12-19T12:39:31.595Z,58.42
2022-12-19T12:42:10.777Z,59.75
2022-12-19T12:44:45.812Z,64.82
2022-12-19T12:47:18.402Z,67.53
2022-12-19T12:49:48.810Z,69.38
2022-12-19T12:52:19.553Z,65.65
2022-12-19T12:54:49.112Z,68.00
2022-12-19T12:57:22.369Z,61.72
2022-12-19T13:00:18.334Z,67.50
2022-12-19T13:02:50.337Z,70.60
2022-12-19T13:05:37.158Z,69.90
2022-12-19T13:08:33.083Z,77.20
2022-12-19T13:11:04.018Z,77.10
2022-12-19T13:13:53.560Z,71.22
2022-12-19T13:16:53.233Z,73.55
2022-12-19T13:19:28.299Z,97.13
2022-12-19T13:22:17.658Z,75.97
2022-12-19T13:24:47.407Z,78.78
2022-12-19T13:27:40.779Z,81.53
2022-12-19T13:30:19.873Z,81.97
2022-12-19T13:33:15.655Z,83.50
2022-12-19T13:39:11.644Z,81.78
2022-12-19T13:39:49.256Z,72.22
2022-12-19T13:41:47.122Z,70.82
2022-12-19T13:44:16.201Z,73.20
2022-12-19T13:46:45.648Z,68.95
2022-12-19T13:49:19.192Z,69.72
2022-12-19T13:51:49.353Z,75.32
2022-12-19T13:54:22.976Z,71.25
2022-12-19T13:56:52.115Z,72.63
2022-12-19T13:59:26.504Z,79.38
2022-12-19T14:01:55.717Z,71.90
2022-12-19T14:04:30.247Z,72.95
2022-12-19T14:07:00.812Z,83.97
2022-12-19T14:11:29.188Z,71.38
2022-12-19T14:13:44.871Z,77.13
2022-12-19T14:15:30.472Z,70.28
2022-12-19T14:18:43.329Z,78.35
2022-12-19T14:22:06.855Z,84.05
2022-12-19T14:23:44.703Z,77.78
2022-12-19T14:28:20.528Z,88.63
2022-12-19T14:29:06.755Z,106.47
2022-12-19T14:31:38.897Z,87.60
2022-12-19T14:35:23.720Z,84.68
2022-12-19T14:39:18.330Z,87.37
2022-12-19T14:40:24.636Z,91.10
2022-12-19T14:44:00.582Z,91.28
2022-12-19T14:53:08.460Z,95.22
2022-12-19T14:53:17.905Z,95.07
2022-12-19T14:54:42.091Z,90.40
2022-12-19T14:56:17.563Z,93.35
2022-12-19T14:58:52.378Z,97.88
2022-12-19T15:01:08.493Z,106.93
2022-12-19T15:03:20.075Z,106.55
2022-12-19T15:05:48.937Z,110.15
2022-12-19T15:08:28.025Z,133.13
2022-12-19T15:11:53.573Z,106.63
2022-12-19T15:14:53.426Z,109.97
2022-12-19T15:17:25.630Z,106.07
2022-12-19T15:19:53.731Z,103.53
2022-12-19T15:22:22.218Z,96.75
2022-12-19T15:24:50.397Z,103.20
2022-12-19T15:27:20.487Z,99.78
2022-12-19T15:29:48.777Z,102.05
2022-12-19T15:32:18.188Z,102.35
2022-12-19T15:34:50.981Z,98.70
2022-12-19T15:37:20.037Z,106.85
2022-12-19T15:39:48.470Z,97.10
2022-12-19T15:42:23.079Z,98.45
2022-12-19T15:44:52.620Z,115.55
2022-12-19T15:47:26.175Z,267.23
2022-12-19T15:49:54.455Z,158.02
2022-12-19T15:52:24.183Z,152.73
2022-12-19T15:54:52.532Z,117.55
2022-12-19T15:57:28.687Z,112.63
2022-12-19T15:59:59.339Z,111.35
2022-12-19T16:02:56.428Z,116.00
2022-12-19T16:05:17.601Z,98.85
2022-12-19T16:07:46.781Z,107.38
2022-12-19T16:10:15.853Z,108.53
2022-12-19T16:12:48.350Z,127.78
2022-12-19T16:15:25.455Z,138.63
2022-12-19T16:17:54.241Z,123.72
2022-12-19T16:20:24.410Z,123.75
2022-12-19T16:22:53.131Z,112.50
2022-12-19T16:25:21.517Z,103.45
2022-12-19T16:27:55.205Z,104.75
2022-12-19T16:30:25.396Z,122.45
2022-12-19T16:32:53.865Z,113.97
2022-12-19T16:35:54.927Z,117.65
2022-12-19T16:38:12.555Z,119.45
2022-12-19T16:40:40.765Z,144.50
2022-12-19T16:43:15.611Z,115.43
2022-12-19T16:45:45.153Z,122.75
2022-12-19T16:48:26.207Z,130.20
2022-12-19T16:50:54.787Z,125.15
2022-12-19T16:53:23.401Z,138.60
2022-12-19T16:55:51.824Z,130.52
2022-12-19T16:58:23.741Z,130.60
2022-12-19T17:00:53.175Z,129.68
2022-12-19T17:03:28.923Z,130.45
2022-12-19T17:05:57.380Z,139.75
2022-12-19T17:08:26.016Z,156.98
2022-12-19T17:10:54.967Z,150.27
2022-12-19T17:13:25.315Z,156.52
2022-12-19T17:15:57.163Z,165.43
2022-12-19T17:18:28.709Z,159.60
2022-12-19T17:20:57.780Z,147.77
2022-12-19T17:23:29.140Z,104.68
2022-12-19T17:25:58.345Z,108.88
2022-12-19T17:28:28.365Z,105.90
2022-12-19T17:30:59.387Z,119.47
2022-12-19T17:33:31.663Z,85.85
2022-12-19T17:36:01.535Z,91.70
2022-12-19T17:38:30.115Z,96.93
2022-12-19T17:40:58.522Z,97.57
2022-12-19T17:43:28.485Z,108.22
2022-12-19T17:45:56.793Z,145.88
2022-12-19T17:48:28.922Z,183.00
2022-12-19T17:50:57.257Z,102.55
2022-12-19T17:53:26.123Z,94.43
2022-12-19T17:55:54.537Z,105.18
2022-12-19T17:58:22.990Z,77.95
2022-12-19T18:00:53.220Z,74.55
2022-12-19T18:03:23.627Z,69.90
2022-12-19T18:05:53.533Z,68.68
2022-12-19T18:08:27.648Z,63.55
2022-12-19T18:10:57.634Z,56.60
2022-12-19T18:13:27.081Z,60.45
2022-12-19T18:15:59.215Z,61.08
2022-12-19T18:18:30.347Z,77.55
2022-12-19T18:20:59.214Z,68.30
2022-12-19T18:23:28.102Z,76.57
2022-12-19T18:26:01.560Z,70.78
2022-12-19T18:28:31.176Z,57.55
2022-12-19T18:31:03.146Z,56.15
2022-12-19T18:33:38.391Z,63.83
2022-12-19T18:36:07.519Z,64.30
2022-12-19T18:38:36.203Z,82.38
2022-12-19T18:41:04.355Z,189.68
2022-12-19T18:43:33.655Z,96.07
2022-12-19T18:46:03.314Z,97.25
2022-12-19T18:48:33.747Z,77.43
2022-12-19T18:51:03.049Z,81.93
2022-12-19T18:53:35.653Z,74.20
2022-12-19T18:56:06.052Z,66.28
2022-12-19T18:58:35.116Z,57.92
2022-12-19T19:01:06.652Z,64.18
2022-12-19T19:03:36.840Z,58.70
2022-12-19T19:06:05.686Z,56.92
2022-12-19T19:08:35.387Z,62.55
2022-12-19T19:11:03.623Z,68.57
2022-12-19T19:13:32.633Z,59.35
2022-12-19T19:16:02.662Z,60.38
2022-12-19T19:18:35.436Z,58.70
2022-12-19T19:21:04.654Z,61.20
2022-12-19T19:23:36.296Z,62.65
2022-12-19T19:28:33.027Z,54.30
2022-12-19T19:31:02.045Z,55.00
2022-12-19T19:33:34.127Z,60.80
2022-12-19T19:36:11.607Z,54.30
2022-12-19T19:38:41.635Z,46.50
2022-12-19T19:41:09.762Z,56.72
2022-12-19T19:43:38.302Z,57.70
2022-12-19T19:46:06.829Z,56.38
2022-12-19T19:48:37.002Z,57.45
2022-12-19T19:51:05.342Z,58.78
2022-12-19T19:53:34.169Z,54.67
2022-12-19T19:56:02.929Z,52.72
2022-12-19T19:58:32.173Z,50.13
2022-12-19T20:01:00.573Z,48.17
2022-12-19T20:03:30.175Z,53.45
2022-12-19T20:06:02.816Z,52.92
2022-12-19T20:08:38.798Z,56.20
2022-12-19T20:11:07.917Z,48.13
2022-12-19T20:13:36.415Z,50.28
2022-12-19T20:16:05.022Z,48.25
2022-12-19T20:18:33.651Z,45.70
2022-12-19T20:21:06.739Z,45.95
2022-12-19T20:23:39.793Z,46.72
2022-12-19T20:26:08.126Z,42.08
2022-12-19T20:28:40.999Z,41.13
2022-12-19T20:31:14.100Z,38.60
2022-12-19T20:33:42.719Z,42.33
2022-12-19T20:36:14.015Z,43.85
2022-12-19T20:38:42.720Z,39.33
2022-12-19T20:41:11.026Z,40.92
2022-12-19T20:43:39.618Z,39.97
2022-12-19T20:46:09.493Z,41.88
2022-12-19T20:48:38.222Z,47.60
2022-12-19T20:51:07.475Z,44.38
2022-12-19T20:53:38.740Z,55.20
2022-12-19T20:56:09.405Z,48.53
2022-12-19T20:58:39.242Z,50.03
2022-12-19T21:01:09.477Z,48.88
2022-12-19T21:03:39.011Z,48.70
2022-12-19T21:06:08.192Z,52.50
2022-12-19T21:08:38.889Z,48.03
2022-12-19T21:11:08.491Z,51.15
2022-12-19T21:13:37.430Z,52.78
2022-12-19T21:16:08.897Z,55.60
2022-12-19T21:18:39.724Z,51.63
2022-12-19T21:21:09.124Z,44.67
2022-12-19T21:23:39.014Z,45.85
2022-12-19T21:26:07.412Z,45.63
2022-12-19T21:28:36.081Z,47.75
2022-12-19T21:31:07.235Z,50.17
2022-12-19T21:33:35.777Z,42.22
2022-12-19T21:36:08.931Z,44.03
2022-12-19T21:38:41.525Z,45.65
2022-12-19T21:41:09.727Z,46.60
2022-12-19T21:43:38.501Z,36.20
2022-12-19T21:46:08.838Z,41.88
2022-12-19T21:48:38.937Z,44.15
2022-12-19T21:51:07.714Z,38.20
2022-12-19T21:53:36.851Z,37.85
2022-12-19T21:56:08.282Z,35.78
2022-12-19T21:58:36.729Z,38.15
2022-12-19T22:01:09.178Z,37.53
2022-12-19T22:03:38.167Z,37.67
2022-12-19T22:06:08.796Z,39.13
2022-12-19T22:08:37.537Z,33.55
2022-12-19T22:11:13.083Z,34.00
2022-12-19T22:13:41.524Z,36.30
2022-12-19T22:16:10.607Z,41.90
2022-12-19T22:18:39.257Z,38.60
2022-12-19T22:21:09.203Z,36.80
2022-12-19T22:23:37.680Z,35.25
2022-12-19T22:26:08.895Z,33.38
2022-12-19T22:28:39.412Z,31.63
2022-12-19T22:31:16.880Z,35.80
2022-12-19T22:33:45.796Z,37.63
2022-12-19T22:36:15.641Z,32.53
2022-12-19T22:38:47.111Z,36.45
2022-12-19T22:41:17.094Z,37.65
2022-12-19T22:43:45.966Z,38.92
2022-12-19T22:46:15.778Z,35.90
2022-12-19T22:48:44.938Z,35.85
2022-12-19T22:51:13.421Z,40.78
2022-12-19T22:53:42.059Z,38.10
2022-12-19T22:56:13.430Z,35.60
2022-12-19T22:58:44.768Z,34.40
2022-12-19T23:01:14.764Z,34.88
2022-12-19T23:03:43.383Z,36.05
2022-12-19T23:06:11.656Z,34.45
2022-12-19T23:08:40.748Z,37.50
2022-12-19T23:11:12.050Z,36.22
2022-12-19T23:13:40.836Z,38.75
2022-12-19T23:16:10.504Z,34.65
2022-12-19T23:18:40.044Z,30.92
2022-12-19T23:21:12.566Z,35.42
2022-12-19T23:23:42.801Z,36.67
2022-12-19T23:26:15.943Z,35.38
2022-12-19T23:28:45.347Z,33.83
2022-12-19T23:31:14.885Z,35.60
2022-12-19T23:33:43.364Z,36.75
2022-12-19T23:36:11.687Z,38.95
2022-12-19T23:38:40.749Z,38.88
2022-12-19T23:41:11.200Z,38.97
2022-12-19T23:43:40.548Z,42.00
2022-12-19T23:46:09.778Z,41.60
2022-12-19T23:48:39.663Z,40.92
2022-12-19T23:51:09.048Z,37.83
2022-12-19T23:53:37.668Z,35.45
2022-12-19T23:56:08.566Z,38.45
2022-12-19T23:58:37.017Z,34.60
